createdAt,value
2019-03-23T00:00:43.965Z,79.88
2019-03-23T00:03:18.934Z,79.98
2019-03-23T00:05:52.885Z,80.05
2019-03-23T00:08:27.104Z,80.09
2019-03-23T00:11:03.556Z,79.89
2019-03-23T00:13:37.015Z,80.07
2019-03-23T00:16:10.865Z,80.22
2019-03-23T00:18:43.935Z,80.76
2019-03-23T00:21:17.211Z,80.83
2019-03-23T00:23:50.156Z,80.67
2019-03-23T00:26:23.335Z,80.87
2019-03-23T00:28:56.566Z,80.62
2019-03-23T00:31:29.666Z,80.55
2019-03-23T00:34:03.908Z,81.18
2019-03-23T00:36:41.512Z,81.57
2019-03-23T00:39:11.898Z,81.90
2019-03-23T00:41:47.256Z,81.88
2019-03-23T00:44:20.235Z,82.50
2019-03-23T00:46:53.775Z,82.74
2019-03-23T00:49:32.197Z,83.27
2019-03-23T00:52:06.705Z,83.48
2019-03-23T00:54:39.735Z,83.35
2019-03-23T00:57:12.948Z,83.49
2019-03-23T00:59:47.005Z,83.66
2019-03-23T01:02:20.185Z,83.57
2019-03-23T01:04:54.093Z,83.51
2019-03-23T01:07:27.114Z,83.65
2019-03-23T01:10:00.345Z,83.67
2019-03-23T01:12:33.605Z,83.69
2019-03-23T01:15:07.615Z,83.56
2019-03-23T01:17:40.850Z,83.72
2019-03-23T01:20:14.545Z,83.72
2019-03-23T01:22:47.435Z,83.59
2019-03-23T01:25:21.555Z,83.77
2019-03-23T01:27:54.905Z,83.73
2019-03-23T01:30:28.325Z,83.38
2019-03-23T01:33:01.505Z,83.41
2019-03-23T01:35:35.153Z,83.54
2019-03-23T01:38:08.270Z,83.72
2019-03-23T01:40:41.745Z,83.80
2019-03-23T01:43:15.445Z,83.76
2019-03-23T01:45:48.489Z,83.72
2019-03-23T01:48:21.685Z,83.80
2019-03-23T01:50:55.428Z,83.69
2019-03-23T01:53:29.555Z,83.75
2019-03-23T01:56:05.345Z,83.72
2019-03-23T01:58:39.908Z,83.86
2019-03-23T02:01:13.465Z,83.94
2019-03-23T02:03:46.905Z,83.75
2019-03-23T02:06:20.862Z,83.79
2019-03-23T02:08:54.045Z,83.82
2019-03-23T02:11:27.014Z,84.03
2019-03-23T02:14:00.396Z,84.22
2019-03-23T02:16:33.454Z,84.25
2019-03-23T02:19:06.955Z,83.95
2019-03-23T02:21:40.689Z,83.46
2019-03-23T02:24:16.485Z,83.21
2019-03-23T02:26:50.425Z,83.21
2019-03-23T02:29:23.955Z,82.71
2019-03-23T02:31:58.054Z,82.53
2019-03-23T02:34:32.820Z,82.66
2019-03-23T02:37:06.115Z,82.65
2019-03-23T02:39:39.324Z,81.97
2019-03-23T02:42:12.235Z,81.62
2019-03-23T02:44:45.293Z,81.71
2019-03-23T02:47:19.859Z,81.67
2019-03-23T02:49:54.485Z,81.86
2019-03-23T02:52:28.101Z,82.25
2019-03-23T02:55:01.415Z,81.95
2019-03-23T02:58:04.526Z,81.71
2019-03-23T03:00:46.386Z,81.26
2019-03-23T03:03:19.556Z,81.51
2019-03-23T03:05:54.898Z,81.48
2019-03-23T03:08:28.425Z,81.08
2019-03-23T03:11:02.785Z,81.19
2019-03-23T03:13:36.205Z,81.20
2019-03-23T03:16:09.496Z,81.02
2019-03-23T03:18:42.925Z,81.00
2019-03-23T03:21:16.198Z,81.29
2019-03-23T03:23:49.474Z,81.54
2019-03-23T03:26:22.786Z,81.53
2019-03-23T03:28:55.935Z,81.38
2019-03-23T03:31:29.395Z,81.60
2019-03-23T03:34:02.597Z,81.80
2019-03-23T03:36:35.745Z,81.37
2019-03-23T03:39:10.057Z,81.21
2019-03-23T03:41:44.260Z,81.23
2019-03-23T03:44:17.467Z,81.39
2019-03-23T03:46:50.535Z,81.80
2019-03-23T03:49:24.116Z,81.74
2019-03-23T03:51:57.240Z,81.59
2019-03-23T03:54:30.246Z,81.43
2019-03-23T03:57:03.380Z,81.45
2019-03-23T03:59:36.507Z,81.07
2019-03-23T04:02:10.096Z,81.04
2019-03-23T04:04:43.170Z,80.70
2019-03-23T04:07:16.778Z,80.93
2019-03-23T04:09:51.374Z,80.80
2019-03-23T04:12:24.857Z,80.54
2019-03-23T04:14:58.064Z,81.00
2019-03-23T04:17:32.803Z,81.15
2019-03-23T04:20:06.560Z,80.84
2019-03-23T04:22:40.156Z,80.82
2019-03-23T04:25:13.435Z,80.91
2019-03-23T04:27:46.778Z,81.09
2019-03-23T04:30:19.973Z,81.40
2019-03-23T04:32:53.245Z,81.34
2019-03-23T04:35:26.508Z,80.89
2019-03-23T04:38:00.185Z,80.78
2019-03-23T04:40:33.384Z,80.87
2019-03-23T04:43:07.364Z,81.09
2019-03-23T04:45:42.145Z,81.31
2019-03-23T04:48:15.526Z,81.14
2019-03-23T04:50:48.724Z,81.08
2019-03-23T04:53:21.905Z,80.82
2019-03-23T04:55:55.244Z,80.73
2019-03-23T04:58:28.355Z,80.84
2019-03-23T05:01:04.318Z,80.56
2019-03-23T05:03:37.515Z,80.76
2019-03-23T05:06:10.795Z,80.84
2019-03-23T05:08:43.975Z,80.76
2019-03-23T05:11:17.514Z,80.59
2019-03-23T05:13:51.035Z,80.66
2019-03-23T05:16:24.285Z,80.80
2019-03-23T05:18:57.515Z,80.62
2019-03-23T05:21:30.950Z,80.36
2019-03-23T05:24:04.063Z,80.25
2019-03-23T05:26:37.625Z,80.35
2019-03-23T05:29:10.778Z,80.21
2019-03-23T05:31:44.646Z,80.14
2019-03-23T05:34:18.926Z,80.22
2019-03-23T05:36:52.985Z,80.03
2019-03-23T05:39:28.608Z,79.98
2019-03-23T05:42:03.375Z,80.21
2019-03-23T05:44:37.036Z,80.27
2019-03-23T05:47:10.784Z,80.19
2019-03-23T05:49:44.178Z,80.02
2019-03-23T05:52:17.638Z,80.02
2019-03-23T05:54:50.865Z,79.94
2019-03-23T05:57:24.103Z,80.01
2019-03-23T05:59:57.585Z,80.04
2019-03-23T06:02:33.715Z,79.78
2019-03-23T06:05:08.480Z,79.80
2019-03-23T06:07:42.034Z,79.54
2019-03-23T06:10:15.597Z,79.50
2019-03-23T06:12:50.015Z,79.59
2019-03-23T06:15:23.563Z,79.32
2019-03-23T06:17:56.842Z,78.84
2019-03-23T06:20:30.254Z,78.50
2019-03-23T06:23:06.315Z,78.38
2019-03-23T06:25:39.659Z,78.27
2019-03-23T06:28:13.005Z,77.93
2019-03-23T06:30:46.485Z,77.64
2019-03-23T06:33:19.689Z,77.48
2019-03-23T06:35:53.425Z,77.25
2019-03-23T06:38:26.924Z,76.61
2019-03-23T06:40:59.945Z,75.72
2019-03-23T06:43:33.565Z,75.51
2019-03-23T06:46:07.005Z,75.46
2019-03-23T06:48:40.384Z,75.10
2019-03-23T06:51:13.485Z,75.04
2019-03-23T06:53:46.798Z,73.32
2019-03-23T06:56:20.092Z,73.39
2019-03-23T06:58:53.685Z,73.11
2019-03-23T07:01:26.905Z,73.18
2019-03-23T07:04:00.275Z,73.87
2019-03-23T07:06:33.370Z,72.84
2019-03-23T07:09:16.118Z,70.52
2019-03-23T07:11:44.215Z,70.72
2019-03-23T07:14:18.506Z,68.78
2019-03-23T07:16:51.745Z,69.33
2019-03-23T07:19:25.219Z,68.80
2019-03-23T07:21:58.634Z,67.07
2019-03-23T07:24:32.405Z,69.38
2019-03-23T07:27:06.135Z,65.13
2019-03-23T07:29:39.634Z,64.57
2019-03-23T07:32:12.870Z,63.51
2019-03-23T07:34:46.235Z,62.57
2019-03-23T07:37:19.365Z,61.82
2019-03-23T07:39:52.565Z,60.62
2019-03-23T07:42:25.635Z,60.85
2019-03-23T07:44:58.725Z,57.28
2019-03-23T07:47:31.766Z,56.33
2019-03-23T07:50:05.524Z,54.46
2019-03-23T07:52:38.595Z,52.42
2019-03-23T07:55:15.288Z,49.86
2019-03-23T07:57:49.274Z,50.91
2019-03-23T08:00:22.785Z,50.55
2019-03-23T08:02:56.004Z,50.49
2019-03-23T08:05:29.125Z,45.73
2019-03-23T08:08:02.138Z,47.72
2019-03-23T08:10:35.464Z,48.18
2019-03-23T08:13:08.768Z,47.13
2019-03-23T08:15:42.638Z,47.45
2019-03-23T08:18:17.315Z,44.48
2019-03-23T08:20:51.346Z,45.71
2019-03-23T08:23:24.465Z,40.60
2019-03-23T08:25:57.594Z,43.73
2019-03-23T08:28:32.410Z,42.38
2019-03-23T08:31:05.505Z,42.12
2019-03-23T08:33:38.877Z,39.91
2019-03-23T08:36:12.058Z,44.34
2019-03-23T08:38:45.214Z,43.19
2019-03-23T08:41:18.571Z,40.54
2019-03-23T08:43:51.535Z,41.11
2019-03-23T08:46:24.845Z,40.85
2019-03-23T08:48:58.828Z,41.83
2019-03-23T08:51:32.057Z,40.45
2019-03-23T08:54:05.295Z,41.03
2019-03-23T08:56:38.775Z,40.58
2019-03-23T08:59:11.978Z,39.41
2019-03-23T09:01:45.278Z,38.79
2019-03-23T09:04:18.588Z,37.09
2019-03-23T09:06:51.875Z,38.46
2019-03-23T09:09:25.234Z,39.09
2019-03-23T09:11:58.414Z,38.30
2019-03-23T09:14:31.545Z,33.88
2019-03-23T09:17:04.745Z,37.85
2019-03-23T09:19:38.125Z,36.04
2019-03-23T09:22:11.477Z,36.45
2019-03-23T09:24:44.876Z,34.42
2019-03-23T09:27:21.234Z,35.70
2019-03-23T09:29:57.074Z,34.39
2019-03-23T09:32:31.005Z,33.68
2019-03-23T09:35:04.308Z,34.76
2019-03-23T09:37:38.101Z,34.53
2019-03-23T09:40:15.084Z,32.46
2019-03-23T09:42:49.855Z,30.72
2019-03-23T09:45:24.305Z,32.42
2019-03-23T09:47:57.684Z,30.54
2019-03-23T09:50:30.875Z,30.10
2019-03-23T09:53:04.284Z,29.10
2019-03-23T09:55:38.220Z,32.11
2019-03-23T09:58:11.767Z,31.26
2019-03-23T10:04:02.216Z,29.10
2019-03-23T10:06:43.375Z,31.06
2019-03-23T10:10:21.969Z,30.19
2019-03-23T10:12:54.815Z,30.89
2019-03-23T10:15:28.260Z,31.89
2019-03-23T10:18:01.715Z,31.06
2019-03-23T10:20:34.966Z,30.97
2019-03-23T10:23:08.135Z,29.71
2019-03-23T10:25:42.764Z,27.08
2019-03-23T10:28:15.942Z,29.46
2019-03-23T10:30:49.165Z,30.87
2019-03-23T10:33:23.155Z,29.51
2019-03-23T10:35:56.404Z,29.67
2019-03-23T10:38:29.335Z,29.02
2019-03-23T10:41:24.824Z,29.85
2019-03-23T10:45:44.127Z,28.59
2019-03-23T10:47:10.814Z,28.43
2019-03-23T10:49:45.907Z,28.45
2019-03-23T10:52:19.164Z,28.13
2019-03-23T10:54:52.235Z,29.10
2019-03-23T11:09:05.702Z,27.11
2019-03-23T13:33:46.331Z,23.11
2019-03-23T13:36:25.124Z,23.79
2019-03-23T13:38:58.094Z,24.07
2019-03-23T13:41:30.664Z,24.07
2019-03-23T13:44:03.605Z,24.46
2019-03-23T13:46:39.694Z,23.73
2019-03-23T13:49:13.963Z,24.39
2019-03-23T13:51:47.233Z,23.11
2019-03-23T13:54:19.943Z,19.03
2019-03-23T13:56:53.414Z,24.08
2019-03-23T13:59:26.046Z,24.66
2019-03-23T14:01:58.764Z,23.62
2019-03-23T14:04:31.234Z,23.85
2019-03-23T14:07:03.894Z,24.08
2019-03-23T14:09:36.554Z,24.90
2019-03-23T14:12:09.214Z,25.01
2019-03-23T14:14:41.843Z,25.26
2019-03-23T14:17:14.487Z,24.65
2019-03-23T14:19:49.557Z,24.88
2019-03-23T14:22:23.816Z,25.50
2019-03-23T14:24:56.404Z,25.32
2019-03-23T14:27:29.614Z,25.79
2019-03-23T14:30:02.179Z,26.42
2019-03-23T14:32:34.623Z,26.19
2019-03-23T14:35:08.843Z,26.29
2019-03-23T14:37:41.644Z,25.77
2019-03-23T14:40:14.464Z,26.18
2019-03-23T14:42:47.063Z,26.43
2019-03-23T14:45:19.653Z,26.74
2019-03-23T14:47:52.174Z,27.42
2019-03-23T14:50:24.678Z,27.61
2019-03-23T14:52:57.244Z,28.07
2019-03-23T14:55:29.894Z,28.42
2019-03-23T14:58:02.714Z,28.76
2019-03-23T15:00:36.096Z,29.07
2019-03-23T15:03:08.624Z,28.93
2019-03-23T15:05:41.104Z,29.07
2019-03-23T15:08:13.557Z,29.29
2019-03-23T15:10:46.054Z,29.71
2019-03-23T15:13:18.784Z,29.27
2019-03-23T15:15:51.374Z,29.16
2019-03-23T15:18:24.074Z,29.60
2019-03-23T15:20:56.684Z,29.27
2019-03-23T15:23:29.214Z,29.93
2019-03-23T15:26:01.705Z,30.16
2019-03-23T15:28:34.604Z,30.29
2019-03-23T15:31:07.254Z,30.44
2019-03-23T15:33:39.704Z,30.05
2019-03-23T15:36:12.368Z,31.03
2019-03-23T15:38:45.254Z,31.43
2019-03-23T15:41:17.884Z,31.59
2019-03-23T15:43:50.374Z,32.11
2019-03-23T15:46:25.154Z,32.29
2019-03-23T15:48:59.536Z,32.19
2019-03-23T15:51:32.124Z,32.50
2019-03-23T15:54:05.334Z,33.14
2019-03-23T15:56:37.954Z,33.41
2019-03-23T15:59:10.774Z,33.82
2019-03-23T16:01:43.314Z,34.27
2019-03-23T16:04:22.593Z,34.48
2019-03-23T16:06:56.853Z,34.61
2019-03-23T16:09:29.704Z,34.75
2019-03-23T16:12:02.340Z,35.16
2019-03-23T16:14:34.892Z,35.51
2019-03-23T16:17:07.485Z,35.92
2019-03-23T16:19:40.275Z,36.50
2019-03-23T16:22:13.975Z,36.86
2019-03-23T16:24:46.863Z,37.28
2019-03-23T16:27:19.565Z,37.60
2019-03-23T16:29:52.093Z,38.24
2019-03-23T16:32:24.718Z,38.65
2019-03-23T16:34:57.495Z,39.29
2019-03-23T16:37:30.116Z,39.66
2019-03-23T16:40:02.845Z,40.01
2019-03-23T16:42:44.623Z,40.63
2019-03-23T16:45:11.335Z,40.79
2019-03-23T16:47:43.954Z,41.13
2019-03-23T16:50:16.385Z,41.28
2019-03-23T16:52:49.140Z,41.68
2019-03-23T16:55:21.656Z,41.68
2019-03-23T16:57:54.694Z,41.74
2019-03-23T17:00:46.405Z,41.62
2019-03-23T17:03:18.879Z,41.80
2019-03-23T17:05:51.344Z,42.15
2019-03-23T17:08:23.886Z,42.27
2019-03-23T17:10:57.293Z,42.47
2019-03-23T17:13:29.966Z,42.92
2019-03-23T17:16:02.747Z,42.23
2019-03-23T17:18:35.465Z,42.28
2019-03-23T17:21:07.984Z,42.67
2019-03-23T17:23:40.604Z,42.91
2019-03-23T17:26:13.185Z,42.92
2019-03-23T17:28:45.604Z,43.01
2019-03-23T17:31:20.825Z,43.10
2019-03-23T17:33:53.287Z,42.96
2019-03-23T17:36:25.876Z,42.89
2019-03-23T17:38:58.706Z,42.66
2019-03-23T17:41:32.415Z,42.82
2019-03-23T17:44:05.084Z,43.42
2019-03-23T17:46:37.645Z,43.37
2019-03-23T17:49:10.375Z,43.86
2019-03-23T17:51:42.928Z,44.07
2019-03-23T17:54:15.399Z,44.58
2019-03-23T17:56:47.942Z,44.84
2019-03-23T17:59:20.725Z,44.96
2019-03-23T18:01:53.275Z,45.11
2019-03-23T18:04:27.195Z,45.49
2019-03-23T18:06:59.807Z,45.56
2019-03-23T18:09:32.444Z,45.51
2019-03-23T18:12:05.055Z,45.82
2019-03-23T18:14:37.574Z,46.42
2019-03-23T18:17:10.325Z,46.44
2019-03-23T18:19:42.745Z,46.15
2019-03-23T18:22:15.377Z,46.51
2019-03-23T18:24:47.975Z,46.40
2019-03-23T18:27:21.284Z,46.53
2019-03-23T18:29:53.894Z,46.68
2019-03-23T18:32:26.424Z,46.72
2019-03-23T18:34:58.952Z,46.60
2019-03-23T18:37:31.585Z,46.82
2019-03-23T18:40:08.054Z,46.98
2019-03-23T18:42:40.854Z,47.00
2019-03-23T18:45:13.545Z,47.14
2019-03-23T18:47:46.165Z,46.97
2019-03-23T18:50:18.826Z,47.00
2019-03-23T18:52:51.365Z,47.32
2019-03-23T18:55:24.784Z,47.32
2019-03-23T18:57:57.952Z,47.34
2019-03-23T19:00:36.305Z,47.73
2019-03-23T19:03:09.245Z,47.68
2019-03-23T19:05:41.945Z,47.97
2019-03-23T19:08:14.435Z,48.21
2019-03-23T19:10:46.946Z,48.45
2019-03-23T19:13:19.504Z,49.02
2019-03-23T19:15:52.230Z,49.25
2019-03-23T19:18:24.844Z,49.68
2019-03-23T19:20:57.334Z,50.03
2019-03-23T19:23:29.922Z,50.13
2019-03-23T19:26:02.773Z,50.60
2019-03-23T19:28:35.387Z,50.49
2019-03-23T19:31:08.044Z,50.55
2019-03-23T19:33:41.025Z,50.53
2019-03-23T19:36:15.145Z,50.46
2019-03-23T19:38:47.806Z,50.18
2019-03-23T19:41:20.505Z,50.44
2019-03-23T19:43:53.136Z,50.67
2019-03-23T19:46:25.724Z,50.65
2019-03-23T19:51:55.443Z,51.02
2019-03-23T19:54:28.955Z,51.39
2019-03-23T19:57:01.694Z,51.73
2019-03-23T19:59:34.204Z,51.53
2019-03-23T20:02:07.069Z,51.78
2019-03-23T20:04:41.102Z,51.65
2019-03-23T20:07:13.704Z,51.71
2019-03-23T20:09:46.124Z,51.60
2019-03-23T20:12:20.505Z,51.95
2019-03-23T20:14:57.078Z,52.06
2019-03-23T20:17:30.284Z,52.20
2019-03-23T20:20:02.824Z,52.01
2019-03-23T20:22:35.524Z,52.26
2019-03-23T20:25:09.646Z,52.82
2019-03-23T20:27:42.185Z,53.00
2019-03-23T20:30:15.415Z,53.20
2019-03-23T20:32:48.047Z,53.52
2019-03-23T20:35:20.661Z,53.99
2019-03-23T20:37:53.695Z,53.89
2019-03-23T20:40:26.334Z,53.70
2019-03-23T20:42:58.924Z,53.89
2019-03-23T20:45:32.464Z,53.57
2019-03-23T20:48:05.344Z,53.60
2019-03-23T20:50:39.534Z,53.82
2019-03-23T20:53:13.956Z,54.04
2019-03-23T20:55:46.626Z,54.08
2019-03-23T20:58:20.175Z,54.17
2019-03-23T21:00:55.315Z,54.30
2019-03-23T21:03:27.875Z,54.19
2019-03-23T21:06:00.823Z,54.71
2019-03-23T21:08:34.235Z,54.76
2019-03-23T21:11:07.264Z,54.54
2019-03-23T21:13:40.046Z,54.46
2019-03-23T21:16:12.624Z,54.55
2019-03-23T21:18:45.454Z,54.60
2019-03-23T21:21:18.204Z,54.87
2019-03-23T21:23:52.177Z,54.71
2019-03-23T21:26:26.024Z,54.87
2019-03-23T21:28:58.754Z,54.72
2019-03-23T21:31:31.355Z,54.88
2019-03-23T21:34:03.970Z,54.86
2019-03-23T21:36:36.714Z,54.92
2019-03-23T21:39:09.424Z,55.13
2019-03-23T21:41:42.027Z,55.29
2019-03-23T21:44:14.754Z,55.33
2019-03-23T21:46:47.475Z,55.55
2019-03-23T21:49:20.376Z,55.68
2019-03-23T21:51:53.134Z,55.55
2019-03-23T21:54:26.003Z,55.40
2019-03-23T21:56:58.954Z,55.93
2019-03-23T21:59:32.456Z,56.23
2019-03-23T22:02:07.117Z,56.13
2019-03-23T22:04:40.662Z,56.51
2019-03-23T22:07:15.343Z,56.80
2019-03-23T22:09:48.285Z,57.03
2019-03-23T22:12:21.084Z,57.58
2019-03-23T22:14:53.744Z,57.91
2019-03-23T22:17:26.644Z,57.83
2019-03-23T22:19:59.534Z,57.98
2019-03-23T22:22:32.544Z,58.43
2019-03-23T22:25:05.534Z,58.58
2019-03-23T22:27:38.634Z,59.29
2019-03-23T22:30:12.667Z,59.68
2019-03-23T22:32:45.344Z,59.90
2019-03-23T22:35:18.206Z,59.96
2019-03-23T22:37:51.125Z,59.70
2019-03-23T22:40:23.607Z,59.63
2019-03-23T22:42:56.284Z,59.15
2019-03-23T22:45:29.063Z,59.42
2019-03-23T22:48:01.782Z,59.50
2019-03-23T22:50:34.404Z,60.94
2019-03-23T22:53:07.084Z,60.45
2019-03-23T22:55:39.693Z,59.83
2019-03-23T22:58:12.414Z,61.31
2019-03-23T23:00:46.257Z,59.19
2019-03-23T23:03:19.192Z,59.17
2019-03-23T23:05:52.274Z,60.80
2019-03-23T23:08:24.964Z,59.15
2019-03-23T23:10:57.663Z,58.37
2019-03-23T23:13:30.206Z,58.80
2019-03-23T23:16:03.312Z,59.01
2019-03-23T23:18:36.048Z,59.34
2019-03-23T23:21:08.774Z,59.62
2019-03-23T23:23:41.683Z,59.53
2019-03-23T23:26:15.032Z,60.76
2019-03-23T23:28:47.694Z,59.53
2019-03-23T23:31:20.434Z,60.15
2019-03-23T23:33:53.333Z,60.12
2019-03-23T23:36:26.023Z,60.46
2019-03-23T23:38:58.906Z,60.40
2019-03-23T23:41:31.793Z,62.58
2019-03-23T23:44:04.807Z,61.96
2019-03-23T23:46:37.423Z,66.93
2019-03-23T23:49:10.096Z,63.05
2019-03-23T23:51:50.233Z,64.96
2019-03-23T23:54:18.294Z,66.33
2019-03-23T23:56:52.220Z,68.45
2019-03-23T23:59:27.686Z,65.86
